createdAt,value
2018-05-01T00:01:17.674Z,10.90
2018-05-01T00:03:49.147Z,11.00
2018-05-01T00:08:59.314Z,11.00
2018-05-01T00:11:38.210Z,11.00
2018-05-01T00:14:13.207Z,10.90
2018-05-01T00:16:47.817Z,10.80
2018-05-01T00:19:26.066Z,10.80
2018-05-01T00:21:57.847Z,10.80
2018-05-01T00:24:29.205Z,10.70
2018-05-01T00:27:04.387Z,10.70
2018-05-01T00:29:36.942Z,10.60
2018-05-01T00:32:10.787Z,10.60
2018-05-01T00:34:43.201Z,10.60
2018-05-01T00:37:15.429Z,10.50
2018-05-01T00:39:48.531Z,10.50
2018-05-01T00:42:21.513Z,10.50
2018-05-01T00:44:51.914Z,10.40
2018-05-01T00:47:22.030Z,10.40
2018-05-01T00:49:55.684Z,10.40
2018-05-01T00:52:37.165Z,10.40
2018-05-01T00:55:08.594Z,10.40
2018-05-01T00:57:37.632Z,10.30
2018-05-01T01:00:11.326Z,10.30
2018-05-01T01:02:42.649Z,10.30
2018-05-01T01:05:12.770Z,10.20
2018-05-01T01:07:42.966Z,10.20
2018-05-01T01:10:15.462Z,10.10
2018-05-01T01:12:56.351Z,10.00
2018-05-01T01:15:32.875Z,9.90
2018-05-01T01:18:04.068Z,9.90
2018-05-01T01:20:36.253Z,9.80
2018-05-01T01:23:08.074Z,9.80
2018-05-01T01:25:36.750Z,9.70
2018-05-01T01:28:06.868Z,9.60
2018-05-01T01:30:36.988Z,9.60
2018-05-01T01:33:07.990Z,9.60
2018-05-01T01:35:38.925Z,9.50
2018-05-01T01:38:09.375Z,9.50
2018-05-01T01:40:38.844Z,9.40
2018-05-01T01:43:10.718Z,9.40
2018-05-01T01:45:39.189Z,9.30
2018-05-01T01:48:08.109Z,9.30
2018-05-01T01:50:36.936Z,9.30
2018-05-01T01:53:06.166Z,9.30
2018-05-01T01:55:35.483Z,9.20
2018-05-01T01:58:06.021Z,9.30
2018-05-01T02:00:37.359Z,9.20
2018-05-01T02:03:05.422Z,9.20
2018-05-01T02:05:34.935Z,9.20
2018-05-01T02:08:02.664Z,9.20
2018-05-01T02:10:32.990Z,9.20
2018-05-01T02:13:03.327Z,9.20
2018-05-01T02:15:32.244Z,9.10
2018-05-01T02:18:00.372Z,9.10
2018-05-01T02:20:33.991Z,9.10
2018-05-01T02:23:02.199Z,9.10
2018-05-01T02:25:29.772Z,9.10
2018-05-01T02:27:59.651Z,9.00
2018-05-01T02:30:27.021Z,9.00
2018-05-01T02:32:55.025Z,9.00
2018-05-01T02:35:25.591Z,9.00
2018-05-01T02:37:53.550Z,9.00
2018-05-01T02:40:21.463Z,9.00
2018-05-01T02:42:49.564Z,9.00
2018-05-01T02:45:18.733Z,9.00
2018-05-01T02:47:46.593Z,9.00
2018-05-01T02:50:13.803Z,8.90
2018-05-01T02:52:41.940Z,9.00
2018-05-01T02:55:09.151Z,9.00
2018-05-01T02:57:36.970Z,9.00
2018-05-01T03:00:04.137Z,9.00
2018-05-01T03:02:32.092Z,9.00
2018-05-01T03:04:59.315Z,9.00
2018-05-01T03:07:26.522Z,9.00
2018-05-01T03:09:53.763Z,9.00
2018-05-01T03:12:20.947Z,9.00
2018-05-01T03:14:48.197Z,9.10
2018-05-01T03:17:15.449Z,9.10
2018-05-01T03:19:43.445Z,9.10
2018-05-01T03:22:10.579Z,9.10
2018-05-01T03:24:37.804Z,9.10
2018-05-01T03:27:05.399Z,9.10
2018-05-01T03:29:32.631Z,9.10
2018-05-01T03:31:59.789Z,9.20
2018-05-01T03:34:26.976Z,9.20
2018-05-01T03:36:55.842Z,9.20
2018-05-01T03:39:23.026Z,9.20
2018-05-01T03:41:50.190Z,9.20
2018-05-01T03:44:17.371Z,9.20
2018-05-01T03:46:44.491Z,9.30
2018-05-01T03:49:11.667Z,9.20
2018-05-01T03:51:38.836Z,9.30
2018-05-01T03:54:06.031Z,9.30
2018-05-01T03:56:34.006Z,9.30
2018-05-01T03:59:01.878Z,9.30
2018-05-01T04:01:29.117Z,9.30
2018-05-01T04:03:57.064Z,9.30
2018-05-01T04:06:24.258Z,9.30
2018-05-01T04:08:51.479Z,9.30
2018-05-01T04:11:19.448Z,9.30
2018-05-01T04:13:47.351Z,9.30
2018-05-01T04:16:14.544Z,9.30
2018-05-01T04:18:41.724Z,9.30
2018-05-01T04:21:08.903Z,9.30
2018-05-01T04:23:37.933Z,9.40
2018-05-01T04:26:06.855Z,9.40
2018-05-01T04:28:34.817Z,9.40
2018-05-01T04:31:01.990Z,9.40
2018-05-01T04:33:30.158Z,9.50
2018-05-01T04:35:57.334Z,9.50
2018-05-01T04:38:24.495Z,9.50
2018-05-01T04:40:51.717Z,9.50
2018-05-01T04:43:19.722Z,9.50
2018-05-01T04:45:47.712Z,9.60
2018-05-01T04:48:14.882Z,9.60
2018-05-01T04:50:42.649Z,9.60
2018-05-01T04:53:10.996Z,9.70
2018-05-01T04:55:38.183Z,9.70
2018-05-01T04:58:05.307Z,9.70
2018-05-01T05:00:32.511Z,9.80
2018-05-01T05:03:00.861Z,9.80
2018-05-01T05:05:29.021Z,9.90
2018-05-01T05:07:56.183Z,9.90
2018-05-01T05:10:24.136Z,10.00
2018-05-01T05:12:52.122Z,10.00
2018-05-01T05:15:19.340Z,10.00
2018-05-01T05:17:47.297Z,10.10
2018-05-01T05:20:14.490Z,10.10
2018-05-01T05:22:41.672Z,10.20
2018-05-01T05:25:08.901Z,10.30
2018-05-01T05:27:36.170Z,10.30
2018-05-01T05:30:03.363Z,10.40
2018-05-01T05:32:30.506Z,10.50
2018-05-01T05:34:57.751Z,10.50
2018-05-01T05:37:25.646Z,10.60
2018-05-01T05:39:53.604Z,10.70
2018-05-01T05:42:20.778Z,10.60
2018-05-01T05:44:48.931Z,10.70
2018-05-01T05:47:16.906Z,10.80
2018-05-01T05:49:44.851Z,10.90
2018-05-01T05:52:12.761Z,10.90
2018-05-01T05:54:39.906Z,11.00
2018-05-01T05:57:08.279Z,11.00
2018-05-01T05:59:36.069Z,11.10
2018-05-01T06:02:04.063Z,10.80
2018-05-01T06:04:31.239Z,11.20
2018-05-01T06:06:59.936Z,11.40
2018-05-01T06:09:27.165Z,11.40
2018-05-01T06:11:54.422Z,11.60
2018-05-01T06:14:22.342Z,11.80
2018-05-01T06:16:49.543Z,11.80
2018-05-01T06:19:17.496Z,12.20
2018-05-01T06:21:44.687Z,12.20
2018-05-01T06:24:11.936Z,12.20
2018-05-01T06:26:39.105Z,12.30
2018-05-01T06:29:06.252Z,12.40
2018-05-01T06:31:33.431Z,12.50
2018-05-01T06:34:01.805Z,12.50
2018-05-01T06:36:28.978Z,12.40
2018-05-01T06:38:56.861Z,12.40
2018-05-01T06:41:25.225Z,12.50
2018-05-01T06:43:53.270Z,12.40
2018-05-01T06:46:21.147Z,12.40
2018-05-01T06:48:48.383Z,12.50
2018-05-01T06:51:15.592Z,12.60
2018-05-01T06:53:42.700Z,12.70
2018-05-01T06:56:09.895Z,12.80
2018-05-01T06:58:37.040Z,12.90
2018-05-01T07:01:04.153Z,13.20
2018-05-01T07:03:31.265Z,13.40
2018-05-01T07:05:58.344Z,13.50
2018-05-01T07:08:25.431Z,13.40
2018-05-01T07:10:52.657Z,13.50
2018-05-01T07:13:19.827Z,13.60
2018-05-01T07:15:47.787Z,13.50
2018-05-01T07:18:14.914Z,13.50
2018-05-01T07:20:42.105Z,13.40
2018-05-01T07:23:09.329Z,13.20
2018-05-01T07:25:36.603Z,13.20
2018-05-01T07:28:03.749Z,13.40
2018-05-01T07:30:30.947Z,13.50
2018-05-01T07:32:58.244Z,13.60
2018-05-01T07:35:25.408Z,13.60
2018-05-01T07:37:52.596Z,13.60
2018-05-01T07:40:19.848Z,13.60
2018-05-01T07:42:46.995Z,13.50
2018-05-01T07:45:14.164Z,13.60
2018-05-01T07:47:41.296Z,13.60
2018-05-01T07:50:08.441Z,13.70
2018-05-01T07:52:35.523Z,13.70
2018-05-01T07:55:03.467Z,13.20
2018-05-01T07:57:30.591Z,13.20
2018-05-01T07:59:58.510Z,13.80
2018-05-01T08:02:25.663Z,13.80
2018-05-01T08:04:53.578Z,14.40
2018-05-01T08:07:20.729Z,14.30
2018-05-01T08:09:47.837Z,14.50
2018-05-01T08:12:14.985Z,14.60
2018-05-01T08:14:42.153Z,14.90
2018-05-01T08:17:09.326Z,14.90
2018-05-01T08:19:36.510Z,15.10
2018-05-01T08:22:03.630Z,14.70
2018-05-01T08:24:30.783Z,14.60
2018-05-01T08:26:59.140Z,14.90
2018-05-01T08:29:27.072Z,14.80
2018-05-01T08:31:54.204Z,15.10
2018-05-01T08:34:22.101Z,15.10
2018-05-01T08:36:49.242Z,15.10
2018-05-01T08:39:16.348Z,15.50
2018-05-01T08:41:43.553Z,15.60
2018-05-01T08:44:10.647Z,16.10
2018-05-01T08:46:39.520Z,17.10
2018-05-01T08:49:07.566Z,17.10
2018-05-01T08:51:34.881Z,17.30
2018-05-01T08:54:02.148Z,17.10
2018-05-01T08:56:29.320Z,17.30
2018-05-01T08:58:56.482Z,17.80
2018-05-01T09:01:23.629Z,18.20
2018-05-01T09:03:50.793Z,17.50
2018-05-01T09:06:17.953Z,18.70
2018-05-01T09:08:45.124Z,19.30
2018-05-01T09:11:13.056Z,19.40
2018-05-01T09:13:40.198Z,19.40
2018-05-01T09:16:07.481Z,19.10
2018-05-01T09:18:35.494Z,18.70
2018-05-01T09:21:02.709Z,18.70
2018-05-01T09:23:30.545Z,18.30
2018-05-01T09:25:57.691Z,18.20
2018-05-01T09:28:24.755Z,18.50
2018-05-01T09:30:51.869Z,18.40
2018-05-01T09:33:18.990Z,17.90
2018-05-01T09:35:46.135Z,18.10
2018-05-01T09:38:14.033Z,17.30
2018-05-01T09:40:41.206Z,17.30
2018-05-01T09:43:08.339Z,17.70
2018-05-01T09:45:35.463Z,18.00
2018-05-01T09:48:02.587Z,18.70
2018-05-01T09:50:29.729Z,18.80
2018-05-01T09:52:57.371Z,18.90
2018-05-01T09:55:24.961Z,18.90
2018-05-01T09:57:53.388Z,18.90
2018-05-01T10:00:24.817Z,18.90
2018-05-01T10:02:52.495Z,19.90
2018-05-01T10:05:20.149Z,19.60
2018-05-01T10:07:47.829Z,19.90
2018-05-01T10:10:15.410Z,19.50
2018-05-01T10:12:43.993Z,19.50
2018-05-01T10:15:12.429Z,19.00
2018-05-01T10:17:40.416Z,19.00
2018-05-01T10:20:08.813Z,18.70
2018-05-01T10:22:36.522Z,18.70
2018-05-01T10:25:04.194Z,18.80
2018-05-01T10:27:31.965Z,18.10
2018-05-01T10:29:59.618Z,17.90
2018-05-01T10:32:27.296Z,18.80
2018-05-01T10:34:54.959Z,20.00
2018-05-01T10:37:22.683Z,21.70
2018-05-01T10:39:51.231Z,20.60
2018-05-01T10:42:20.687Z,20.20
2018-05-01T10:44:48.430Z,20.20
2018-05-01T10:47:18.195Z,21.60
2018-05-01T10:49:45.784Z,21.40
2018-05-01T10:52:15.168Z,22.40
2018-05-01T10:54:44.359Z,22.00
2018-05-01T10:57:12.147Z,22.30
2018-05-01T10:59:39.883Z,22.20
2018-05-01T11:02:11.320Z,21.90
2018-05-01T11:04:39.682Z,22.70
2018-05-01T11:07:11.279Z,22.50
2018-05-01T11:09:47.139Z,23.50
2018-05-01T11:12:18.441Z,24.20
2018-05-01T11:14:47.791Z,22.50
2018-05-01T11:17:19.260Z,21.40
2018-05-01T11:20:20.215Z,21.40
2018-05-01T11:23:01.379Z,20.70
2018-05-01T11:25:30.705Z,20.60
2018-05-01T11:27:59.797Z,20.10
2018-05-01T11:30:46.607Z,19.30
2018-05-01T11:33:18.793Z,18.90
2018-05-01T11:35:53.193Z,18.90
2018-05-01T13:11:04.880Z,18.80
2018-05-01T13:13:32.566Z,19.20
2018-05-01T13:16:00.220Z,19.30
2018-05-01T13:18:28.841Z,19.40
2018-05-01T13:20:56.437Z,19.70
2018-05-01T13:23:30.478Z,20.00
2018-05-01T13:26:01.671Z,19.90
2018-05-01T13:28:31.011Z,19.70
2018-05-01T13:30:58.568Z,19.70
2018-05-01T13:33:28.410Z,19.80
2018-05-01T13:35:56.094Z,19.80
2018-05-01T13:41:08.328Z,19.80
2018-05-01T13:43:35.921Z,20.40
2018-05-01T13:46:04.232Z,19.90
2018-05-01T13:48:31.774Z,19.90
2018-05-01T13:50:59.302Z,18.70
2018-05-01T13:53:26.868Z,18.70
2018-05-01T13:55:54.393Z,18.50
2018-05-01T13:58:21.955Z,18.80
2018-05-01T14:00:49.479Z,19.10
2018-05-01T14:03:17.035Z,19.00
2018-05-01T14:05:44.598Z,19.10
2018-05-01T14:08:12.156Z,19.10
2018-05-01T14:10:39.680Z,19.10
2018-05-01T14:13:07.552Z,19.20
2018-05-01T14:15:35.776Z,19.70
2018-05-01T14:18:03.308Z,19.60
2018-05-01T14:20:33.639Z,19.80
2018-05-01T14:23:04.081Z,20.20
2018-05-01T14:25:40.575Z,19.20
2018-05-01T14:28:08.033Z,18.40
2018-05-01T14:30:36.738Z,18.40
2018-05-01T14:33:05.248Z,18.90
2018-05-01T14:35:36.113Z,18.90
2018-05-01T14:38:03.821Z,18.70
2018-05-01T14:40:31.368Z,18.10
2018-05-01T14:43:00.147Z,18.10
2018-05-01T14:45:29.690Z,18.10
2018-05-01T14:47:58.966Z,18.10
2018-05-01T14:50:36.193Z,17.80
2018-05-01T14:53:07.287Z,17.70
2018-05-01T14:55:37.593Z,17.70
2018-05-01T14:58:05.421Z,17.90
2018-05-01T15:00:33.489Z,17.80
2018-05-01T15:03:04.564Z,17.40
2018-05-01T15:05:32.225Z,17.40
2018-05-01T15:08:00.845Z,17.70
2018-05-01T15:10:28.539Z,18.20
2018-05-01T15:12:57.257Z,18.10
2018-05-01T15:15:24.944Z,17.90
2018-05-01T15:17:52.671Z,17.80
2018-05-01T15:20:20.334Z,17.60
2018-05-01T15:22:48.252Z,17.60
2018-05-01T15:25:16.031Z,17.60
2018-05-01T15:27:43.805Z,17.90
2018-05-01T15:30:11.673Z,17.60
2018-05-01T15:32:39.520Z,17.30
2018-05-01T15:35:07.116Z,17.50
2018-05-01T15:37:35.732Z,16.80
2018-05-01T15:40:03.340Z,16.80
2018-05-01T15:42:31.113Z,16.90
2018-05-01T15:44:59.510Z,16.90
2018-05-01T15:47:28.288Z,16.90
2018-05-01T15:49:55.933Z,16.90
2018-05-01T15:52:24.345Z,17.20
2018-05-01T15:55:00.749Z,17.20
2018-05-01T15:57:40.126Z,17.20
2018-05-01T16:00:08.445Z,17.30
2018-05-01T16:02:36.069Z,17.00
2018-05-01T16:05:03.756Z,16.90
2018-05-01T16:07:31.363Z,16.90
2018-05-01T16:09:58.982Z,16.90
2018-05-01T16:12:26.576Z,17.10
2018-05-01T16:14:57.191Z,17.30
2018-05-01T16:17:24.868Z,17.30
2018-05-01T16:19:53.068Z,17.20
2018-05-01T16:22:20.708Z,17.30
2018-05-01T16:24:49.077Z,17.50
2018-05-01T16:27:17.438Z,17.50
2018-05-01T16:29:45.860Z,17.40
2018-05-01T16:32:13.508Z,17.20
2018-05-01T16:34:41.921Z,16.90
2018-05-01T16:37:09.565Z,16.80
2018-05-01T16:39:37.209Z,16.80
2018-05-01T16:42:05.721Z,16.60
2018-05-01T16:44:33.351Z,16.60
2018-05-01T16:47:01.007Z,16.50
2018-05-01T16:49:29.655Z,16.20
2018-05-01T16:51:57.308Z,16.20
2018-05-01T16:54:24.966Z,16.00
2018-05-01T16:57:03.059Z,16.00
2018-05-01T16:59:30.870Z,16.00
2018-05-01T17:01:58.631Z,15.90
2018-05-01T17:10:08.566Z,15.90
2018-05-01T17:12:36.142Z,15.80
2018-05-01T17:15:03.831Z,15.80
2018-05-01T17:17:31.460Z,15.80
2018-05-01T17:19:59.799Z,15.70
2018-05-01T17:22:27.393Z,15.60
2018-05-01T17:24:55.046Z,15.60
2018-05-01T17:27:22.684Z,15.50
2018-05-01T17:29:50.424Z,15.40
2018-05-01T17:32:18.078Z,15.40
2018-05-01T17:34:45.732Z,15.20
2018-05-01T17:37:13.435Z,15.10
2018-05-01T17:39:42.122Z,14.90
2018-05-01T17:42:10.024Z,14.80
2018-05-01T17:44:38.635Z,14.60
2018-05-01T17:47:07.587Z,14.50
2018-05-01T17:49:39.388Z,14.40
2018-05-01T17:52:07.391Z,14.20
2018-05-01T17:54:35.257Z,14.10
2018-05-01T17:57:02.923Z,14.00
2018-05-01T17:59:30.636Z,13.80
2018-05-01T18:01:59.045Z,13.50
2018-05-01T18:04:31.738Z,13.50
2018-05-01T18:06:59.520Z,13.40
2018-05-01T18:09:27.350Z,13.30
2018-05-01T18:11:55.056Z,13.20
2018-05-01T18:14:22.737Z,13.00
2018-05-01T18:16:50.373Z,12.90
2018-05-01T18:19:18.489Z,12.70
2018-05-01T18:21:46.857Z,12.50
2018-05-01T18:24:14.554Z,12.40
2018-05-01T18:26:42.184Z,12.20
2018-05-01T18:29:09.999Z,12.10
2018-05-01T18:31:37.616Z,12.00
2018-05-01T18:34:05.453Z,11.80
2018-05-01T18:36:33.481Z,11.70
2018-05-01T18:39:01.972Z,11.60
2018-05-01T18:41:31.245Z,11.50
2018-05-01T18:47:09.148Z,11.20
2018-05-01T18:49:38.358Z,11.10
2018-05-01T19:00:54.066Z,10.50
2018-05-01T19:03:22.605Z,10.50
2018-05-01T19:05:53.122Z,10.30
2018-05-01T19:08:22.393Z,10.30
2018-05-01T19:10:52.306Z,10.20
2018-05-01T19:13:21.718Z,10.20
2018-05-01T19:15:51.823Z,10.20
2018-05-01T19:18:20.676Z,10.20
2018-05-01T19:20:57.881Z,10.10
2018-05-01T19:23:28.142Z,10.10
2018-05-01T19:26:03.907Z,10.10
2018-05-01T19:28:34.761Z,10.00
2018-05-01T19:31:05.845Z,10.00
2018-05-01T19:33:39.748Z,9.90
2018-05-01T19:36:19.243Z,9.80
2018-05-01T19:50:37.712Z,9.20
2018-05-01T19:53:05.735Z,9.10
2018-05-01T19:55:33.595Z,9.00
2018-05-01T19:58:01.422Z,9.00
2018-05-01T20:00:29.198Z,8.90
2018-05-01T20:02:57.194Z,8.90
2018-05-01T20:05:25.009Z,8.90
2018-05-01T20:07:52.816Z,8.80
2018-05-01T20:10:20.985Z,8.80
2018-05-01T20:12:49.454Z,8.80
2018-05-01T20:15:18.103Z,8.80
2018-05-01T20:17:45.910Z,8.90
2018-05-01T20:20:15.605Z,8.80
2018-05-01T20:22:44.591Z,8.90
2018-05-01T20:25:13.103Z,8.90
2018-05-01T20:27:40.931Z,8.90
2018-05-01T20:30:08.774Z,8.80
2018-05-01T20:32:36.539Z,8.80
2018-05-01T20:35:04.255Z,8.70
2018-05-01T20:37:32.991Z,8.70
2018-05-01T20:40:00.889Z,8.70
2018-05-01T20:42:30.564Z,8.60
2018-05-01T20:44:59.082Z,8.60
2018-05-01T20:47:29.442Z,8.40
2018-05-01T20:49:57.445Z,8.40
2018-05-01T20:52:25.302Z,8.40
2018-05-01T20:54:53.170Z,8.30
2018-05-01T20:57:22.043Z,8.20
2018-05-01T20:59:49.728Z,8.20
2018-05-01T21:02:17.685Z,8.20
2018-05-01T21:04:45.294Z,8.20
2018-05-01T21:07:15.158Z,8.20
2018-05-01T21:09:43.137Z,8.30
2018-05-01T21:12:10.804Z,8.40
2018-05-01T21:14:38.642Z,8.50
2018-05-01T21:17:06.444Z,8.60
2018-05-01T21:19:34.129Z,8.70
2018-05-01T21:22:01.911Z,8.80
2018-05-01T21:24:29.551Z,8.80
2018-05-01T21:26:57.257Z,8.80
2018-05-01T21:29:24.903Z,8.80
2018-05-01T21:31:52.646Z,8.80
2018-05-01T21:34:20.277Z,8.80
2018-05-01T21:36:47.904Z,8.80
2018-05-01T21:39:15.688Z,8.90
2018-05-01T21:41:43.356Z,8.90
2018-05-01T21:44:11.853Z,9.00
2018-05-01T21:46:39.565Z,8.90
2018-05-01T21:49:07.235Z,8.90
2018-05-01T21:51:34.849Z,9.00
2018-05-01T21:54:02.566Z,9.00
2018-05-01T21:56:30.231Z,9.00
2018-05-01T21:58:57.854Z,9.00
2018-05-01T22:01:25.775Z,9.00
2018-05-01T22:03:53.461Z,9.00
2018-05-01T22:06:21.092Z,8.90
2018-05-01T22:08:48.703Z,8.90
2018-05-01T22:11:16.396Z,8.90
2018-05-01T22:13:44.943Z,8.90
2018-05-01T22:16:12.684Z,8.90
2018-05-01T22:18:41.151Z,8.90
2018-05-01T22:21:10.068Z,8.90
2018-05-01T22:23:39.482Z,8.80
2018-05-01T22:26:08.780Z,8.70
2018-05-01T22:28:37.036Z,8.70
2018-05-01T22:31:04.770Z,8.70
2018-05-01T22:33:33.364Z,8.70
2018-05-01T22:36:01.105Z,8.70
2018-05-01T22:38:29.793Z,8.70
2018-05-01T22:40:57.501Z,8.70
2018-05-01T22:43:25.191Z,8.70
2018-05-01T22:45:53.701Z,8.70
2018-05-01T22:48:22.991Z,8.70
2018-05-01T22:50:50.643Z,8.70
2018-05-01T22:53:18.293Z,8.70
2018-05-01T22:55:45.971Z,8.70
2018-05-01T22:58:13.566Z,8.70
2018-05-01T23:00:42.251Z,8.70
2018-05-01T23:03:10.630Z,8.70
2018-05-01T23:05:39.235Z,8.70
2018-05-01T23:08:06.958Z,8.70
2018-05-01T23:10:35.354Z,8.90
2018-05-01T23:13:04.562Z,8.90
2018-05-01T23:15:32.223Z,8.90
2018-05-01T23:18:00.003Z,9.00
2018-05-01T23:20:27.619Z,9.00
2018-05-01T23:22:55.411Z,9.00
2018-05-01T23:25:23.128Z,9.10
2018-05-01T23:27:50.837Z,9.10
2018-05-01T23:30:18.610Z,9.20
2018-05-01T23:32:46.375Z,9.20
2018-05-01T23:35:14.015Z,9.30
2018-05-01T23:37:41.766Z,9.30
2018-05-01T23:40:09.736Z,9.30
2018-05-01T23:42:37.398Z,9.40
2018-05-01T23:45:06.629Z,9.50
2018-05-01T23:47:36.146Z,9.50
2018-05-01T23:50:03.933Z,9.50
2018-05-01T23:52:31.635Z,9.50
2018-05-01T23:54:59.348Z,9.50
2018-05-01T23:57:27.980Z,9.50
2018-05-01T23:59:55.645Z,9.50
